Time;durP1;ratioP1;P1;durP2;ratioP2;P2;SDS_P1;SDS_P2;PMS_P1;PMS_P2;Temp;Humidity;BMP_temperature;BMP_pressure;BME280_temperature;BME280_humidity;BME280_pressure;Samples;Min_cycle;Max_cycle;Signal;HPM_P1;HPM_P2
2021/12/30 00:01:36;;;;;;;;;0.00;0.00;;;;;16.65;73.18;101249.66;5081990;28;46358;-63
2021/12/30 00:04:01;;;;;;;;;0.00;0.00;;;;;16.69;72.72;101264.75;5062892;28;45259;-64
2021/12/30 00:06:27;;;;;;;;;0.00;0.00;;;;;16.68;72.92;101266.53;5085834;27;45523;-64
2021/12/30 00:08:53;;;;;;;;;0.00;0.00;;;;;16.64;73.10;101256.88;5086000;27;45463;-63
2021/12/30 00:11:20;;;;;;;;;0.00;0.00;;;;;16.67;72.99;101272.00;5080866;28;46182;-64
2021/12/30 00:13:45;;;;;;;;;0.00;0.00;;;;;16.67;72.69;101270.22;5082001;28;46075;-64
2021/12/30 00:16:16;;;;;;;;;0.00;0.00;;;;;16.68;72.95;101273.78;5082263;28;45365;-64
2021/12/30 00:18:43;;;;;;;;;0.00;0.00;;;;;16.66;73.03;101275.69;5082031;28;45323;-63
2021/12/30 00:21:09;;;;;;;;;0.00;0.00;;;;;16.65;72.97;101269.38;5081055;27;45456;-64
2021/12/30 00:23:35;;;;;;;;;0.00;0.00;;;;;16.62;73.13;101268.66;5085461;27;45368;-63
2021/12/30 00:26:00;;;;;;;;;0.00;0.00;;;;;16.60;73.12;101266.06;5081696;28;45505;-64
2021/12/30 00:28:28;;;;;;;;;0.00;0.00;;;;;16.62;73.15;101265.97;5081909;28;45360;-64
2021/12/30 00:30:54;;;;;;;;;0.00;0.00;;;;;16.61;73.25;101264.25;5080979;28;47114;-64
2021/12/30 00:33:20;;;;;;;;;0.00;0.00;;;;;16.62;73.05;101266.88;5081830;27;45327;-64
2021/12/30 00:35:45;;;;;;;;;0.00;0.00;;;;;16.64;73.21;101280.28;5081975;27;45492;-64
2021/12/30 00:38:11;;;;;;;;;0.00;0.00;;;;;16.58;73.00;101265.25;5092216;27;45433;-64
2021/12/30 00:40:38;;;;;;;;;0.00;0.00;;;;;16.62;73.04;101274.97;5080597;27;46321;-63
2021/12/30 00:43:04;;;;;;;;;0.00;0.00;;;;;16.66;72.85;101272.97;5081484;28;45599;-63
2021/12/30 00:45:31;;;;;;;;;0.00;0.00;;;;;16.66;72.89;101281.94;5081694;27;45402;-64
2021/12/30 00:47:57;;;;;;;;;0.00;0.00;;;;;16.65;73.12;101277.47;5081568;28;45438;-63
2021/12/30 00:50:24;;;;;;;;;0.25;0.25;;;;;16.63;73.04;101282.06;5080465;28;46592;-64
2021/12/30 00:52:49;;;;;;;;;0.00;0.00;;;;;16.65;72.95;101288.25;5081450;28;45490;-64
2021/12/30 00:55:15;;;;;;;;;0.00;0.00;;;;;16.67;73.14;101297.16;5088737;27;45412;-64
2021/12/30 00:57:42;;;;;;;;;0.00;0.00;;;;;16.69;73.14;101297.09;5081485;28;45268;-64
2021/12/30 01:00:12;;;;;;;;;0.00;0.00;;;;;16.70;72.94;101301.50;5081045;28;46143;-64
2021/12/30 01:02:38;;;;;;;;;0.00;0.00;;;;;16.69;72.95;101307.88;5081368;28;45383;-64
2021/12/30 01:05:04;;;;;;;;;1.00;0.00;;;;;16.60;72.92;101292.13;5080567;27;45305;-64
2021/12/30 01:07:30;;;;;;;;;1.50;0.00;;;;;16.68;72.99;101306.13;5081144;28;45181;-63
2021/12/30 01:09:55;;;;;;;;;0.00;0.00;;;;;16.66;73.17;101300.78;5080812;28;47146;-64
2021/12/30 01:12:21;;;;;;;;;0.00;0.00;;;;;16.74;73.04;101313.00;5086206;27;45403;-64
2021/12/30 01:14:48;;;;;;;;;2.00;0.00;;;;;16.71;73.13;101308.66;5081572;27;45719;-63
2021/12/30 01:17:24;;;;;;;;;0.00;0.00;;;;;16.74;72.75;101316.59;5080988;28;45458;-64
2021/12/30 01:19:51;;;;;;;;;0.75;0.75;;;;;16.75;73.25;101320.16;5068490;28;46341;-64
2021/12/30 01:22:25;;;;;;;;;3.00;1.00;;;;;16.74;72.82;101329.19;5080284;28;45377;-64
2021/12/30 01:24:51;;;;;;;;;0.00;0.00;;;;;16.76;73.04;101349.75;5081195;28;45347;-64
2021/12/30 01:27:18;;;;;;;;;0.00;0.00;;;;;16.76;73.09;101343.50;5080774;28;45404;-64
2021/12/30 01:29:43;;;;;;;;;0.50;0.00;;;;;16.74;72.99;101343.56;5081578;27;45425;-64
2021/12/30 01:32:09;;;;;;;;;1.00;1.00;;;;;16.76;73.11;101347.06;5080096;27;45232;-64
2021/12/30 01:34:34;;;;;;;;;0.00;0.00;;;;;16.77;73.15;101353.31;5081120;28;45301;-63
2021/12/30 01:37:02;;;;;;;;;0.75;0.00;;;;;16.75;72.96;101350.69;5080662;28;45441;-64
2021/12/30 01:39:29;;;;;;;;;0.00;0.00;;;;;16.71;72.99;101349.09;5080528;28;47158;-64
2021/12/30 01:41:55;;;;;;;;;2.00;1.00;;;;;16.78;72.79;101365.84;5079383;27;46253;-63
2021/12/30 01:44:22;;;;;;;;;0.00;0.00;;;;;16.74;72.78;101364.25;5080852;28;45420;-64
2021/12/30 01:46:48;;;;;;;;;0.00;0.00;;;;;16.79;73.08;101372.97;5082173;27;45333;-64
2021/12/30 01:49:14;;;;;;;;;1.00;0.00;;;;;16.79;72.93;101360.38;5080477;28;46425;-64
2021/12/30 01:51:41;;;;;;;;;0.00;0.00;;;;;16.81;72.83;101369.28;5071709;27;45379;-63
2021/12/30 01:54:07;;;;;;;;;0.00;0.00;;;;;16.79;73.15;101368.47;5080586;28;45447;-63
2021/12/30 01:56:32;;;;;;;;;0.00;0.00;;;;;16.77;73.09;101366.78;5080072;28;45651;-64
2021/12/30 01:58:59;;;;;;;;;0.00;0.00;;;;;16.79;72.96;101360.38;5080470;28;45320;-64
2021/12/30 02:01:24;;;;;;;;;0.00;0.00;;;;;16.77;73.00;101370.38;5080812;27;45367;-64
2021/12/30 02:03:50;;;;;;;;;2.00;0.25;;;;;16.78;72.86;101371.25;5080606;28;45257;-64
2021/12/30 02:06:16;;;;;;;;;0.00;0.00;;;;;16.78;73.26;101372.09;5080238;28;45336;-64
2021/12/30 02:08:41;;;;;;;;;0.00;0.00;;;;;16.74;73.06;101366.94;5080373;28;45496;-63
2021/12/30 02:11:07;;;;;;;;;0.00;0.00;;;;;16.78;72.96;101377.50;5079042;28;45293;-63
2021/12/30 02:13:32;;;;;;;;;0.25;0.25;;;;;16.80;73.21;101380.13;5080692;28;45354;-64
2021/12/30 02:16:01;;;;;;;;;0.00;0.00;;;;;16.79;73.27;101381.97;5080237;28;45461;-63
2021/12/30 02:18:27;;;;;;;;;0.25;0.25;;;;;16.79;72.85;101379.25;5079101;27;47083;-64
2021/12/30 02:20:55;;;;;;;;;1.00;0.50;;;;;16.82;73.03;101387.22;5083259;27;45249;-63
2021/12/30 02:23:22;;;;;;;;;0.00;0.00;;;;;16.82;73.13;101384.50;5080552;27;45278;-64
2021/12/30 02:25:49;;;;;;;;;0.00;0.00;;;;;16.82;73.12;101383.63;5079729;28;45454;-64
2021/12/30 02:28:16;;;;;;;;;1.00;0.00;;;;;16.78;72.98;101387.41;5070630;28;46912;-64
2021/12/30 02:30:44;;;;;;;;;0.00;0.00;;;;;16.82;73.12;101400.69;5079250;28;45749;-64
2021/12/30 02:33:09;;;;;;;;;0.00;0.00;;;;;16.81;72.83;101398.94;5082480;27;45369;-63
2021/12/30 02:35:35;;;;;;;;;0.00;0.00;;;;;16.85;72.77;101405.94;5082451;27;45268;-64
2021/12/30 02:38:01;;;;;;;;;0.00;0.00;;;;;16.84;72.94;101406.00;5083453;27;47215;-63
2021/12/30 02:40:35;;;;;;;;;0.00;0.00;;;;;16.85;72.66;101400.53;5083015;27;45574;-64
2021/12/30 02:43:01;;;;;;;;;0.00;0.00;;;;;16.85;72.62;101402.38;5076515;27;45276;-64
2021/12/30 02:45:26;;;;;;;;;0.00;0.00;;;;;16.82;73.13;101410.56;5083369;27;45458;-63
2021/12/30 02:47:52;;;;;;;;;2.00;0.00;;;;;16.85;73.19;101421.25;5083324;28;46294;-64
2021/12/30 02:50:18;;;;;;;;;0.00;0.00;;;;;16.84;72.83;101417.69;5083119;27;45343;-64
2021/12/30 02:52:43;;;;;;;;;0.50;0.00;;;;;16.84;73.02;101422.19;5079422;27;45228;-64
2021/12/30 02:55:10;;;;;;;;;0.50;0.00;;;;;16.83;72.75;101420.44;5082971;27;45211;-64
2021/12/30 02:57:35;;;;;;;;;0.00;0.00;;;;;16.78;73.07;101409.84;5083191;28;46197;-64
2021/12/30 03:00:01;;;;;;;;;0.00;0.00;;;;;16.79;73.06;101430.50;5083189;27;45233;-64
2021/12/30 03:02:26;;;;;;;;;0.50;0.00;;;;;16.76;72.84;101419.84;5082885;27;45470;-64
2021/12/30 03:04:51;;;;;;;;;0.00;0.00;;;;;16.75;73.06;101415.38;5082908;27;45518;-64
2021/12/30 03:07:18;;;;;;;;;0.00;0.00;;;;;16.77;72.91;101421.59;5083141;27;46190;-63
2021/12/30 03:09:47;;;;;;;;;0.00;0.00;;;;;16.79;73.02;101419.69;5083375;27;45268;-63
2021/12/30 03:12:12;;;;;;;;;0.00;0.00;;;;;16.78;72.91;101409.00;5086615;27;45326;-63
2021/12/30 03:14:40;;;;;;;;;0.00;0.00;;;;;16.77;72.82;101408.13;5082942;28;45307;-64
2021/12/30 03:17:05;;;;;;;;;0.50;0.00;;;;;16.77;72.84;101405.44;5083463;27;46239;-64
2021/12/30 03:19:30;;;;;;;;;0.00;0.00;;;;;16.78;72.80;101401.75;5082968;27;45201;-64
2021/12/30 03:21:56;;;;;;;;;0.00;0.00;;;;;16.78;72.82;101414.38;5076996;28;45371;-64
2021/12/30 03:24:22;;;;;;;;;0.00;0.00;;;;;16.76;72.78;101409.06;5081459;28;45189;-63
2021/12/30 03:26:47;;;;;;;;;0.00;0.00;;;;;16.76;72.61;101408.19;5082677;28;46129;-64
2021/12/30 03:29:13;;;;;;;;;1.00;0.00;;;;;16.76;72.70;101409.06;5082590;27;45586;-64
2021/12/30 03:31:38;;;;;;;;;1.00;0.00;;;;;16.74;72.64;101410.97;5084150;27;45310;-64
2021/12/30 03:34:04;;;;;;;;;0.00;0.00;;;;;16.71;72.59;101410.25;5083468;27;45428;-64
2021/12/30 03:36:29;;;;;;;;;0.00;0.00;;;;;16.76;72.69;101427.06;5061189;28;47487;-63
2021/12/30 03:38:56;;;;;;;;;0.00;0.00;;;;;16.77;72.61;101423.41;5081877;28;45264;-64
2021/12/30 03:41:24;;;;;;;;;2.50;0.00;;;;;16.76;72.88;101427.06;5081837;27;45346;-64
2021/12/30 03:43:50;;;;;;;;;0.00;0.00;;;;;16.77;72.49;101427.00;5067825;28;45529;-63
2021/12/30 03:46:16;;;;;;;;;0.00;0.00;;;;;16.77;72.76;101421.59;5082454;27;46650;-63
2021/12/30 03:48:43;;;;;;;;;0.00;0.00;;;;;16.76;72.71;101427.94;5082314;28;45148;-63
2021/12/30 03:51:13;;;;;;;;;0.00;0.00;;;;;16.74;72.39;101419.06;5087198;27;45326;-63
2021/12/30 03:53:41;;;;;;;;;0.00;0.00;;;;;16.75;72.65;101423.47;5080473;28;45499;-63
2021/12/30 03:56:08;;;;;;;;;1.00;0.00;;;;;16.71;72.56;101421.88;5081959;28;47025;-64
2021/12/30 03:58:34;;;;;;;;;0.00;0.00;;;;;16.73;72.46;101425.38;5082096;28;45341;-63
2021/12/30 04:00:59;;;;;;;;;1.00;0.00;;;;;16.73;72.47;101416.44;5082606;28;45382;-64
2021/12/30 04:03:25;;;;;;;;;0.00;0.00;;;;;16.72;72.39;101414.66;5078512;28;45607;-63
2021/12/30 04:05:50;;;;;;;;;0.00;0.00;;;;;16.70;72.38;101403.94;5077123;27;45374;-64
2021/12/30 04:08:16;;;;;;;;;1.75;0.00;;;;;16.72;72.43;101410.13;5082774;27;45346;-63
2021/12/30 04:10:41;;;;;;;;;0.00;0.00;;;;;16.76;72.51;101408.19;5082032;28;45367;-64
2021/12/30 04:13:06;;;;;;;;;1.00;0.00;;;;;16.75;72.74;101414.53;5081315;28;45360;-63
2021/12/30 04:15:32;;;;;;;;;0.00;0.00;;;;;16.73;72.56;101411.91;5081860;28;46201;-64
2021/12/30 04:17:57;;;;;;;;;0.25;0.00;;;;;16.74;72.46;101420.84;5081959;28;45412;-63
2021/12/30 04:20:22;;;;;;;;;0.00;0.00;;;;;16.74;72.21;101416.34;5082210;28;45343;-64
2021/12/30 04:22:48;;;;;;;;;0.00;0.00;;;;;16.75;72.05;101417.22;5084476;27;45359;-63
2021/12/30 04:25:16;;;;;;;;;1.25;0.00;;;;;16.76;72.27;101421.69;5081526;28;45259;-64
2021/12/30 04:27:42;;;;;;;;;0.00;0.00;;;;;16.75;72.52;101418.09;5081748;27;45209;-64
2021/12/30 04:30:10;;;;;;;;;0.00;0.00;;;;;16.69;72.72;101394.13;5081981;28;45382;-64
2021/12/30 04:32:36;;;;;;;;;1.75;0.00;;;;;16.74;72.45;101410.06;5072519;28;45474;-63
2021/12/30 04:35:03;;;;;;;;;0.00;0.00;;;;;16.74;72.21;101407.38;5081731;28;46454;-63
2021/12/30 04:37:28;;;;;;;;;0.00;0.00;;;;;16.73;72.22;101408.34;5082049;27;45395;-63
2021/12/30 04:39:54;;;;;;;;;0.00;0.00;;;;;16.73;72.18;101413.72;5081388;28;45344;-64
2021/12/30 04:42:19;;;;;;;;;0.00;0.00;;;;;16.71;72.21;101407.53;5080981;28;45426;-63
2021/12/30 04:44:47;;;;;;;;;0.25;0.25;;;;;16.71;72.52;101407.53;5081561;28;46431;-64
2021/12/30 04:47:14;;;;;;;;;0.00;0.00;;;;;16.70;72.36;101414.72;5081423;28;45427;-63
2021/12/30 04:49:39;;;;;;;;;0.00;0.00;;;;;16.70;72.36;101411.16;5081653;28;45382;-64
2021/12/30 04:52:05;;;;;;;;;0.00;0.00;;;;;16.73;72.49;101421.81;5080778;27;45576;-64
2021/12/30 04:54:30;;;;;;;;;0.50;0.00;;;;;16.74;72.54;101426.25;5083078;27;45375;-64
2021/12/30 04:56:56;;;;;;;;;0.50;0.00;;;;;16.73;72.21;101424.50;5083252;27;45342;-64
2021/12/30 04:59:22;;;;;;;;;0.00;0.00;;;;;16.72;72.49;101417.34;5081649;28;45267;-63
2021/12/30 05:01:47;;;;;;;;;0.00;0.00;;;;;16.71;72.47;101421.88;5080508;28;45283;-64
2021/12/30 05:04:12;;;;;;;;;0.00;0.00;;;;;16.75;72.24;101433.41;5081226;28;45371;-64
2021/12/30 05:06:38;;;;;;;;;0.00;0.00;;;;;16.76;71.98;101443.25;5080211;27;45236;-64
2021/12/30 05:09:06;;;;;;;;;1.00;1.00;;;;;16.73;72.21;101444.25;5081260;28;45289;-64
2021/12/30 05:11:31;;;;;;;;;0.50;0.25;;;;;16.72;72.39;101453.28;5080259;28;45383;-64
2021/12/30 05:13:57;;;;;;;;;0.00;0.00;;;;;16.73;72.12;101454.16;5081347;27;45368;-64
2021/12/30 05:16:23;;;;;;;;;1.00;0.00;;;;;16.75;72.23;101461.22;5081726;27;45283;-63
2021/12/30 05:18:54;;;;;;;;;0.00;0.00;;;;;16.73;71.97;101463.13;5081095;28;45316;-63
2021/12/30 05:21:20;;;;;;;;;0.00;0.00;;;;;16.73;72.14;101460.41;5067731;28;45273;-64
2021/12/30 05:23:45;;;;;;;;;0.00;0.00;;;;;16.69;71.94;101456.13;5081008;27;45260;-64
2021/12/30 05:26:10;;;;;;;;;0.00;0.00;;;;;16.76;72.18;101473.75;5080710;28;45236;-64
2021/12/30 05:28:36;;;;;;;;;0.00;0.00;;;;;16.74;71.84;101461.28;5081113;28;45303;-63
2021/12/30 05:31:01;;;;;;;;;2.00;0.00;;;;;16.74;72.12;101455.91;5082251;27;45182;-64
2021/12/30 05:33:26;;;;;;;;;1.00;1.00;;;;;16.73;71.82;101454.16;5087933;27;45907;-64
2021/12/30 05:35:52;;;;;;;;;2.00;0.50;;;;;16.72;71.81;101455.97;5080795;27;45334;-63
2021/12/30 05:38:17;;;;;;;;;1.00;0.00;;;;;16.71;72.09;101462.31;5080945;28;45372;-63
2021/12/30 05:40:44;;;;;;;;;2.00;1.00;;;;;16.71;71.99;101488.41;5075836;27;45342;-63
2021/12/30 05:43:09;;;;;;;;;1.00;1.00;;;;;16.65;71.96;101482.34;5074050;27;45764;-63
2021/12/30 05:45:35;;;;;;;;;2.00;0.00;;;;;16.65;72.05;101495.81;5078935;28;45342;-63
2021/12/30 05:48:00;;;;;;;;;0.25;0.25;;;;;16.61;72.02;101486.13;5089074;27;45321;-63
2021/12/30 05:50:28;;;;;;;;;2.50;0.50;;;;;16.62;71.94;101490.59;5063488;28;45375;-63
2021/12/30 05:52:53;;;;;;;;;0.25;0.25;;;;;16.64;71.74;101499.47;5080345;27;47177;-64
2021/12/30 05:55:19;;;;;;;;;0.00;0.00;;;;;16.62;71.84;101498.66;5079823;27;45420;-63
2021/12/30 05:57:45;;;;;;;;;2.00;1.00;;;;;16.60;72.11;101495.16;5080734;28;45215;-64
2021/12/30 06:00:15;;;;;;;;;1.00;1.00;;;;;16.60;71.67;101510.44;5079538;28;45532;-64
2021/12/30 06:02:41;;;;;;;;;0.00;0.00;;;;;16.56;71.69;101492.69;5080567;28;45401;-63
2021/12/30 06:05:07;;;;;;;;;1.00;1.00;;;;;16.50;71.96;101499.22;5084517;27;45565;-64
2021/12/30 06:07:33;;;;;;;;;0.75;0.50;;;;;16.56;71.77;101506.16;5079384;28;45374;-63
2021/12/30 06:09:58;;;;;;;;;0.00;0.00;;;;;16.53;71.92;101509.84;5079273;28;45462;-64
2021/12/30 06:12:24;;;;;;;;;3.25;1.50;;;;;16.56;71.83;101522.34;5079989;27;45240;-63
2021/12/30 06:14:49;;;;;;;;;2.25;2.00;;;;;16.53;71.90;101525.16;5080257;28;45244;-63
2021/12/30 06:17:15;;;;;;;;;1.00;1.00;;;;;16.47;71.83;101512.81;5080422;28;45469;-63
2021/12/30 06:19:44;;;;;;;;;0.75;0.25;;;;;16.49;71.67;101525.28;5080435;27;45444;-63
2021/12/30 06:22:11;;;;;;;;;2.00;0.00;;;;;16.49;71.85;101524.44;5078986;28;46434;-64
2021/12/30 06:24:37;;;;;;;;;2.50;1.00;;;;;16.50;71.66;101523.47;5080021;28;45310;-64
2021/12/30 06:27:02;;;;;;;;;6.50;2.50;;;;;16.48;71.70;101522.66;5079987;28;45366;-63
2021/12/30 06:29:28;;;;;;;;;2.50;1.00;;;;;16.46;71.92;101522.72;5080456;28;45471;-63
2021/12/30 06:31:53;;;;;;;;;5.25;1.00;;;;;16.47;71.64;101512.81;5076544;28;45990;-63
2021/12/30 06:34:18;;;;;;;;;2.50;1.00;;;;;16.45;71.64;101512.88;5078637;28;45334;-64
2021/12/30 06:36:44;;;;;;;;;2.00;2.00;;;;;16.41;71.76;101500.50;5078300;27;45370;-64
2021/12/30 06:39:09;;;;;;;;;3.00;2.00;;;;;16.44;71.62;101513.84;5084670;27;45418;-63
2021/12/30 06:41:35;;;;;;;;;19.75;19.75;;;;;16.43;71.54;101528.25;5073017;28;45398;-63
2021/12/30 06:44:00;;;;;;;;;2.75;1.75;;;;;16.44;71.57;101519.25;5074548;28;45340;-63
2021/12/30 06:46:26;;;;;;;;;1.25;1.25;;;;;16.43;71.62;101522.00;5079889;28;45337;-63
2021/12/30 06:48:51;;;;;;;;;2.25;1.25;;;;;16.42;71.56;101540.00;5079146;28;45365;-63
2021/12/30 06:51:19;;;;;;;;;1.50;1.00;;;;;16.38;71.60;101522.19;5078378;28;46209;-64
2021/12/30 06:53:45;;;;;;;;;3.50;2.00;;;;;16.37;71.47;101533.03;5082440;27;45278;-63
2021/12/30 06:56:10;;;;;;;;;2.00;1.75;;;;;16.32;71.49;101527.84;5079652;28;45382;-63
2021/12/30 06:58:36;;;;;;;;;2.00;2.00;;;;;16.30;71.74;101527.94;5079055;28;45445;-63
2021/12/30 07:01:03;;;;;;;;;2.75;2.75;;;;;16.30;71.51;101538.72;5077838;28;46393;-63
2021/12/30 07:03:28;;;;;;;;;6.25;3.50;;;;;16.27;71.61;101541.53;5079628;28;45330;-63
2021/12/30 07:05:55;;;;;;;;;3.00;2.00;;;;;16.23;71.56;101537.22;5079489;28;45292;-63
2021/12/30 07:08:21;;;;;;;;;1.25;1.25;;;;;16.23;71.47;101534.50;5079204;27;45461;-63
2021/12/30 07:10:47;;;;;;;;;3.75;2.75;;;;;16.23;71.59;101539.91;5083465;27;46304;-63
2021/12/30 07:13:12;;;;;;;;;1.25;1.25;;;;;16.21;71.63;101546.31;5079582;28;45387;-64
2021/12/30 07:15:38;;;;;;;;;2.50;1.75;;;;;16.21;71.46;101554.41;5079198;28;45555;-63
2021/12/30 07:18:03;;;;;;;;;8.75;2.25;;;;;16.21;71.58;101559.78;5079796;28;45390;-63
2021/12/30 07:20:29;;;;;;;;;2.50;1.00;;;;;16.22;71.27;101561.50;5082912;28;46110;-63
2021/12/30 07:22:54;;;;;;;;;5.25;2.00;;;;;16.20;71.37;101563.41;5081895;28;45410;-63
2021/12/30 07:25:20;;;;;;;;;4.00;2.25;;;;;16.18;71.34;101565.31;5092296;27;45523;-63
2021/12/30 07:27:47;;;;;;;;;1.50;1.25;;;;;16.20;71.16;101568.78;5082904;27;45259;-63
2021/12/30 07:30:13;;;;;;;;;6.00;3.00;;;;;16.17;71.32;101575.22;5081973;28;45399;-64
2021/12/30 07:32:38;;;;;;;;;2.25;2.25;;;;;16.18;71.20;101573.38;5081743;27;45244;-63
2021/12/30 07:35:04;;;;;;;;;3.25;2.50;;;;;16.16;71.07;101577.97;5082232;28;45437;-63
2021/12/30 07:37:29;;;;;;;;;2.75;2.00;;;;;16.16;71.16;101570.75;5082463;28;45457;-63
2021/12/30 07:39:55;;;;;;;;;3.50;2.00;;;;;16.13;71.14;101565.47;5087377;27;45492;-63
2021/12/30 07:42:20;;;;;;;;;4.00;4.00;;;;;16.17;70.99;101571.63;5086821;27;45429;-63
2021/12/30 07:44:46;;;;;;;;;4.00;2.50;;;;;16.14;70.98;101575.34;5081348;27;45244;-63
2021/12/30 07:47:11;;;;;;;;;4.00;2.25;;;;;16.09;71.01;101575.53;5080640;28;45389;-63
2021/12/30 07:49:36;;;;;;;;;2.75;2.75;;;;;16.06;71.25;101572.94;5080728;28;45286;-63
2021/12/30 07:52:06;;;;;;;;;3.50;2.50;;;;;16.04;70.92;101573.97;5080980;28;45436;-67
2021/12/30 07:54:32;;;;;;;;;3.25;2.00;;;;;16.01;71.05;101576.78;5081881;27;45476;-70
2021/12/30 07:56:58;;;;;;;;;5.50;2.00;;;;;15.99;70.93;101571.47;5077824;27;45449;-69
2021/12/30 07:59:23;;;;;;;;;2.50;2.00;;;;;15.99;71.12;101584.94;5081900;28;46149;-69
2021/12/30 08:01:49;;;;;;;;;4.00;3.00;;;;;15.99;71.08;101589.41;5079806;28;45314;-70
2021/12/30 08:04:14;;;;;;;;;3.00;1.00;;;;;15.95;71.29;101585.13;5070536;28;45415;-70
2021/12/30 08:06:39;;;;;;;;;2.00;2.00;;;;;15.97;71.07;101607.47;5072998;27;45449;-69
2021/12/30 08:09:06;;;;;;;;;3.25;2.00;;;;;15.93;71.10;101612.09;5080828;28;45360;-70
2021/12/30 08:11:32;;;;;;;;;5.00;4.00;;;;;15.93;71.33;101629.13;5080349;27;45883;-70
2021/12/30 08:13:59;;;;;;;;;3.75;2.25;;;;;15.91;71.17;101620.25;5080773;27;45373;-70
2021/12/30 08:16:25;;;;;;;;;4.00;3.25;;;;;15.90;71.32;101626.59;5079509;28;45465;-70
2021/12/30 08:18:50;;;;;;;;;2.75;2.00;;;;;15.89;71.29;101629.34;5080637;28;45583;-70
2021/12/30 08:21:16;;;;;;;;;4.75;3.00;;;;;15.92;71.33;101634.56;5080193;27;45490;-70
2021/12/30 08:23:41;;;;;;;;;4.00;3.00;;;;;15.85;71.22;101633.94;5075741;28;45388;-70
2021/12/30 08:26:06;;;;;;;;;2.00;2.00;;;;;15.95;71.18;101636.28;5079222;28;45390;-70
2021/12/30 08:28:32;;;;;;;;;6.50;3.50;;;;;15.93;71.00;101641.72;5081387;27;46049;-70
2021/12/30 08:30:58;;;;;;;;;7.25;3.25;;;;;15.90;71.24;101631.97;5080879;28;45372;-70
2021/12/30 08:33:24;;;;;;;;;5.25;3.75;;;;;15.88;71.04;101641.03;5070489;27;45411;-70
2021/12/30 08:35:50;;;;;;;;;4.50;3.00;;;;;15.93;70.93;101656.06;5077714;27;45478;-70
2021/12/30 08:38:17;;;;;;;;;4.50;3.00;;;;;15.88;70.81;101646.41;5076227;27;46328;-70
2021/12/30 08:40:45;;;;;;;;;3.75;2.00;;;;;15.93;70.98;101663.25;5078037;27;45445;-70
2021/12/30 08:43:13;;;;;;;;;3.75;1.50;;;;;15.91;70.84;101673.22;5076004;28;45414;-72
2021/12/30 08:45:39;;;;;;;;;4.25;3.00;;;;;15.90;70.97;101669.66;5070778;28;45507;-71
2021/12/30 08:48:05;;;;;;;;;6.25;1.75;;;;;15.86;71.02;101670.69;5075622;28;46193;-71
2021/12/30 08:50:31;;;;;;;;;4.25;4.00;;;;;15.83;71.00;101659.19;5081097;28;45238;-72
2021/12/30 08:52:56;;;;;;;;;5.00;3.75;;;;;15.85;71.03;101668.06;5077749;27;45627;-72
2021/12/30 08:55:22;;;;;;;;;2.75;1.00;;;;;15.91;71.06;101684.00;5058368;27;45236;-72
2021/12/30 08:57:48;;;;;;;;;5.00;3.00;;;;;15.90;71.04;101663.38;5080842;27;46300;-70
2021/12/30 09:00:23;;;;;;;;;6.25;4.00;;;;;15.96;71.07;101670.34;5080481;28;46868;-73
2021/12/30 09:02:49;;;;;;;;;2.25;2.00;;;;;15.95;70.83;101669.44;5079366;27;45483;-63
2021/12/30 09:05:15;;;;;;;;;7.25;2.25;;;;;15.96;71.07;101667.66;5078317;27;45478;-63
2021/12/30 09:07:41;;;;;;;;;5.25;3.50;;;;;15.96;71.03;101668.53;5074339;27;46429;-63
2021/12/30 09:10:09;;;;;;;;;6.75;3.25;;;;;15.93;70.89;101672.19;5085649;27;45326;-64
2021/12/30 09:12:34;;;;;;;;;3.00;3.00;;;;;15.92;70.94;101669.56;5071961;27;45833;-63
2021/12/30 09:15:00;;;;;;;;;5.50;3.75;;;;;15.96;70.90;101673.03;5079497;27;45486;-64
2021/12/30 09:17:26;;;;;;;;;4.75;3.00;;;;;15.92;70.80;101681.25;5077649;27;46418;-64
2021/12/30 09:19:51;;;;;;;;;5.00;4.00;;;;;15.87;70.99;101687.72;5086708;27;45427;-64
2021/12/30 09:22:17;;;;;;;;;5.50;4.75;;;;;15.88;71.10;101681.41;5078343;27;45354;-64
2021/12/30 09:24:42;;;;;;;;;4.00;3.50;;;;;15.89;71.15;101694.81;5077794;27;45339;-64
2021/12/30 09:27:07;;;;;;;;;3.00;2.25;;;;;15.86;71.30;101680.59;5078995;27;46025;-64
2021/12/30 09:29:33;;;;;;;;;6.00;4.00;;;;;15.88;71.47;101684.09;5077606;28;45398;-64
2021/12/30 09:31:58;;;;;;;;;3.00;2.75;;;;;15.90;71.23;101687.59;5076648;28;45438;-64
2021/12/30 09:34:24;;;;;;;;;4.00;3.00;;;;;15.95;71.09;101688.31;5079999;28;45594;-64
2021/12/30 09:36:49;;;;;;;;;8.00;4.00;;;;;15.93;71.45;101699.13;5079535;27;46035;-64
2021/12/30 09:39:15;;;;;;;;;4.25;4.00;;;;;15.93;71.22;101696.44;5079170;27;45393;-64
2021/12/30 09:41:44;;;;;;;;;4.75;4.00;;;;;15.93;71.26;101701.81;5078177;27;45489;-64
2021/12/30 09:44:10;;;;;;;;;5.25;3.50;;;;;15.93;71.33;101700.97;5077996;27;45513;-64
2021/12/30 09:46:36;;;;;;;;;3.00;1.75;;;;;15.96;71.33;101699.97;5090379;27;45424;-64
2021/12/30 09:49:04;;;;;;;;;3.75;2.50;;;;;15.99;71.40;101707.91;5078471;27;45462;-64
2021/12/30 09:51:30;;;;;;;;;4.00;4.00;;;;;16.01;71.06;101708.75;5081583;27;45956;-64
2021/12/30 09:53:56;;;;;;;;;3.25;3.25;;;;;16.03;70.99;101696.09;5078899;27;45934;-64
2021/12/30 09:56:23;;;;;;;;;2.75;2.00;;;;;16.03;71.40;101698.78;5070295;27;45446;-63
2021/12/30 09:58:48;;;;;;;;;5.00;3.00;;;;;16.05;71.07;101699.59;5074815;28;45510;-64
2021/12/30 10:01:14;;;;;;;;;7.25;4.00;;;;;16.05;71.08;101710.34;5079973;27;45291;-64
2021/12/30 10:03:42;;;;;;;;;3.25;3.25;;;;;16.03;71.22;101707.72;5080744;28;45297;-63
2021/12/30 10:06:10;;;;;;;;;3.00;3.00;;;;;16.05;71.07;101705.84;5076660;28;46473;-64
2021/12/30 10:08:40;;;;;;;;;5.00;3.25;;;;;16.05;71.08;101716.63;5080005;28;45409;-64
2021/12/30 10:11:13;;;;;;;;;3.00;3.00;;;;;16.04;71.03;101700.53;5078738;27;45327;-64
2021/12/30 10:13:48;;;;;;;;;3.50;3.00;;;;;16.06;71.07;101715.69;5079714;28;45435;-64
2021/12/30 10:16:15;;;;;;;;;3.00;3.00;;;;;16.07;71.24;101722.84;5079201;27;46303;-64
2021/12/30 10:18:56;;;;;;;;;4.00;2.00;;;;;16.06;70.91;101721.06;5079254;27;45349;-63
2021/12/30 10:21:30;;;;;;;;;5.50;2.50;;;;;16.09;70.82;101720.97;5085822;27;45551;-64
2021/12/30 10:24:08;;;;;;;;;3.00;3.00;;;;;16.11;70.97;101712.81;5064537;28;45531;-64
2021/12/30 10:26:52;;;;;;;;;4.00;4.00;;;;;16.13;71.11;101715.44;5076204;27;48790;-64
2021/12/30 10:29:18;;;;;;;;;6.25;4.25;;;;;16.02;71.26;101706.00;5081579;27;45524;-65
2021/12/30 10:31:43;;;;;;;;;5.75;3.25;;;;;16.08;71.21;101708.41;5077879;28;45330;-64
2021/12/30 10:34:10;;;;;;;;;9.00;3.75;;;;;16.07;71.20;101708.47;5060563;28;45535;-63
2021/12/30 10:36:48;;;;;;;;;4.00;2.50;;;;;16.09;71.17;101720.97;5077580;27;45247;-63
2021/12/30 10:39:21;;;;;;;;;8.75;3.25;;;;;16.09;71.15;101720.97;5075191;27;45787;-63
2021/12/30 10:41:50;;;;;;;;;3.50;3.00;;;;;16.12;71.12;101730.72;5072886;28;45455;-63
2021/12/30 10:44:17;;;;;;;;;5.25;3.00;;;;;16.16;71.14;101731.50;5067525;28;45510;-64
2021/12/30 10:46:43;;;;;;;;;12.00;10.00;;;;;16.15;71.21;101721.66;5077438;27;45417;-63
2021/12/30 10:49:24;;;;;;;;;12.00;10.25;;;;;16.14;71.16;101712.69;5075465;27;45673;-64
2021/12/30 10:51:51;;;;;;;;;6.50;4.25;;;;;16.15;71.24;101714.44;5071912;27;45331;-65
2021/12/30 10:54:23;;;;;;;;;3.50;2.50;;;;;16.16;71.10;101705.44;5080873;27;45500;-65
2021/12/30 10:57:06;;;;;;;;;4.75;2.25;;;;;16.17;71.22;101700.91;5082292;27;46211;-65
2021/12/30 10:59:38;;;;;;;;;5.25;3.00;;;;;16.18;71.25;101699.97;5086884;27;46803;-65
2021/12/30 11:02:15;;;;;;;;;4.00;2.25;;;;;16.17;71.22;101699.13;5087770;27;45296;-65
2021/12/30 11:04:50;;;;;;;;;6.00;4.50;;;;;16.18;71.39;101700.84;5076376;27;46127;-64
2021/12/30 11:07:21;;;;;;;;;2.50;2.25;;;;;16.22;71.24;101696.22;5090196;27;46364;-64
2021/12/30 11:09:54;;;;;;;;;3.00;3.00;;;;;16.22;71.08;101698.91;5067368;27;45305;-63
2021/12/30 11:12:49;;;;;;;;;4.00;4.00;;;;;16.21;71.09;101699.84;5085058;27;45462;-64
2021/12/30 11:15:22;;;;;;;;;3.25;1.75;;;;;16.23;71.11;101696.16;5062370;27;45602;-64
2021/12/30 11:17:48;;;;;;;;;3.00;2.00;;;;;16.23;71.00;101692.59;5080310;28;46373;-63
2021/12/30 11:20:17;;;;;;;;;5.00;2.00;;;;;16.25;70.99;101696.94;5078823;27;45889;-65
2021/12/30 11:22:43;;;;;;;;;3.75;2.00;;;;;16.23;70.99;101696.16;5085259;27;45607;-65